Time;durP1;ratioP1;P1;durP2;ratioP2;P2;SDS_P1;SDS_P2;PMS_P1;PMS_P2;Temp;Humidity;BMP_temperature;BMP_pressure;BME280_temperature;BME280_humidity;BME280_pressure;Samples;Min_cycle;Max_cycle;Signal;HPM_P1;HPM_P2
2023/07/21 00:04:24;;;;;;;2.90;2.60;;;;;;;13.65;74.53;99470.33;218688;1254;139427;-66
2023/07/21 00:09:28;;;;;;;3.40;3.10;;;;;;;13.70;74.86;99466.23;219090;1256;140119;-66
2023/07/21 00:14:37;;;;;;;3.00;2.70;;;;;;;13.75;74.96;99470.98;218366;1255;139639;-66
2023/07/21 00:19:44;;;;;;;3.20;2.90;;;;;;;13.77;75.07;99470.48;218232;1254;139673;-68
2023/07/21 00:24:48;;;;;;;4.00;3.60;;;;;;;13.73;74.97;99467.05;219543;1254;178851;-65
2023/07/21 00:29:53;;;;;;;3.00;2.60;;;;;;;13.71;75.09;99465.50;219737;1257;139319;-66
2023/07/21 00:34:57;;;;;;;4.40;3.30;;;;;;;13.69;75.06;99463.88;220114;1254;140694;-65
2023/07/21 00:40:05;;;;;;;3.40;3.10;;;;;;;13.68;75.20;99461.36;220140;1254;139986;-65
2023/07/21 00:45:14;;;;;;;3.30;3.00;;;;;;;13.67;75.28;99459.52;220925;1256;139846;-67
2023/07/21 00:50:19;;;;;;;7.10;3.80;;;;;;;13.67;75.31;99459.33;220872;1255;139859;-66
2023/07/21 00:55:24;;;;;;;4.00;3.60;;;;;;;13.63;75.14;99457.53;220201;1253;141447;-66
2023/07/21 01:00:28;;;;;;;4.00;2.50;;;;;;;13.62;75.38;99454.73;219539;1254;209931;-65
2023/07/21 01:05:35;;;;;;;2.90;2.80;;;;;;;13.57;75.29;99458.56;220452;1254;139957;-65
2023/07/21 01:10:41;;;;;;;3.30;3.10;;;;;;;13.57;75.79;99462.73;219101;1253;139902;-68
2023/07/21 01:15:52;;;;;;;4.50;4.10;;;;;;;13.62;76.01;99461.96;218286;1254;139822;-67
2023/07/21 01:20:57;;;;;;;3.40;3.10;;;;;;;13.64;76.24;99458.65;219809;1254;141215;-69
2023/07/21 01:26:03;;;;;;;4.00;3.70;;;;;;;13.67;76.45;99457.02;219174;1254;140103;-69
2023/07/21 01:31:09;;;;;;;3.90;3.60;;;;;;;13.70;76.40;99459.70;219033;1254;140708;-68
2023/07/21 01:36:15;;;;;;;4.20;3.70;;;;;;;13.69;76.47;99459.22;218686;1257;139235;-67
2023/07/21 01:41:21;;;;;;;3.50;3.20;;;;;;;13.68;76.39;99456.64;218334;1254;140017;-69
2023/07/21 01:46:26;;;;;;;5.50;3.90;;;;;;;13.59;76.17;99461.84;219442;1254;139763;-67
2023/07/21 01:51:35;;;;;;;8.70;4.00;;;;;;;13.54;76.46;99457.20;218764;1253;141912;-65
2023/07/21 01:56:47;;;;;;;5.00;4.50;;;;;;;13.50;76.54;99453.27;218821;1254;142023;-69
2023/07/21 02:01:54;;;;;;;3.80;3.50;;;;;;;13.44;76.64;99456.95;218231;1253;140592;-69
2023/07/21 02:07:00;;;;;;;4.30;3.90;;;;;;;13.30;76.35;99461.85;218885;1253;142733;-70
2023/07/21 02:12:05;;;;;;;5.30;4.50;;;;;;;13.21;76.40;99461.30;219876;1254;141623;-68
2023/07/21 02:17:09;;;;;;;4.60;3.80;;;;;;;13.10;76.43;99461.17;219465;1254;141191;-67
2023/07/21 02:22:14;;;;;;;5.00;4.20;;;;;;;13.01;76.69;99462.55;219889;1254;141337;-68
2023/07/21 02:27:18;;;;;;;5.80;3.90;;;;;;;12.97;76.89;99462.84;218642;1255;141212;-67
2023/07/21 02:32:23;;;;;;;3.80;3.50;;;;;;;12.93;77.12;99459.02;218546;1255;208047;-66
2023/07/21 02:37:28;;;;;;;19.30;4.70;;;;;;;12.86;76.92;99458.64;220950;1254;140395;-66
2023/07/21 02:42:35;;;;;;;3.90;3.60;;;;;;;12.79;77.16;99462.45;220945;1254;141039;-66
2023/07/21 02:47:39;;;;;;;5.10;3.70;;;;;;;12.73;77.15;99461.21;219982;1253;140142;-65
2023/07/21 02:52:45;;;;;;;4.50;4.10;;;;;;;12.73;77.25;99461.54;219847;1254;140463;-68
2023/07/21 02:57:50;;;;;;;6.60;4.30;;;;;;;12.74;77.38;99467.11;219303;1253;140694;-68
2023/07/21 03:02:54;;;;;;;5.70;5.00;;;;;;;12.74;77.52;99462.24;219313;1254;140260;-68
2023/07/21 03:07:59;;;;;;;4.80;3.60;;;;;;;12.73;77.62;99460.26;220219;1254;140169;-69
2023/07/21 03:13:03;;;;;;;4.70;4.20;;;;;;;12.73;77.87;99459.61;218501;1254;140961;-70
2023/07/21 03:18:06;;;;;;;5.90;4.40;;;;;;;12.74;77.98;99457.70;218280;1253;140162;-69
2023/07/21 03:23:12;;;;;;;4.70;4.20;;;;;;;12.73;77.97;99458.06;218966;1256;140140;-68
2023/07/21 03:28:16;;;;;;;6.30;4.80;;;;;;;12.76;78.60;99458.98;219060;1253;140477;-66
2023/07/21 03:33:21;;;;;;;4.70;3.30;;;;;;;12.87;79.15;99458.20;218990;1254;141422;-66
2023/07/21 03:38:25;;;;;;;4.90;4.50;;;;;;;12.97;79.23;99460.48;218193;1256;140649;-68
2023/07/21 03:43:31;;;;;;;6.40;4.00;;;;;;;13.02;79.23;99465.86;218778;1254;139896;-67
2023/07/21 03:48:36;;;;;;;4.90;4.50;;;;;;;13.11;79.42;99466.69;218557;1254;140944;-68
2023/07/21 03:53:41;;;;;;;5.10;4.60;;;;;;;13.21;79.49;99468.36;218283;1254;139979;-68
2023/07/21 03:58:45;;;;;;;5.20;4.80;;;;;;;13.26;79.82;99474.73;218747;1253;211659;-68
2023/07/21 04:03:49;;;;;;;7.00;5.50;;;;;;;13.38;80.22;99477.48;218316;1253;139984;-66
2023/07/21 04:08:54;;;;;;;4.50;4.20;;;;;;;13.53;80.16;99479.59;220375;1253;155179;-66
2023/07/21 04:14:00;;;;;;;6.40;5.50;;;;;;;13.70;80.40;99479.14;218268;1254;140540;-65
2023/07/21 04:19:04;;;;;;;9.10;5.90;;;;;;;13.87;80.62;99478.79;218468;1254;140487;-67
2023/07/21 04:24:10;;;;;;;5.00;4.50;;;;;;;14.04;80.67;99481.04;219251;1253;140159;-67
2023/07/21 04:29:15;;;;;;;4.50;4.00;;;;;;;14.29;80.65;99480.73;220994;1254;140374;-67
2023/07/21 04:34:38;;;;;;;4.70;4.30;;;;;;;14.52;80.86;99487.98;221052;1253;140640;-64
2023/07/21 04:39:46;;;;;;;5.60;5.10;;;;;;;14.73;80.93;99487.03;219914;1253;141652;-67
2023/07/21 04:44:51;;;;;;;4.90;4.40;;;;;;;15.00;80.90;99484.84;221203;1253;140375;-67
2023/07/21 04:49:55;;;;;;;4.70;4.20;;;;;;;15.39;80.39;99488.48;220940;1253;142423;-65
2023/07/21 04:55:00;;;;;;;4.50;4.10;;;;;;;16.27;79.51;99482.34;221004;1253;140240;-65
2023/07/21 05:00:11;;;;;;;4.70;3.90;;;;;;;16.74;78.49;99481.30;220227;1254;139985;-67
2023/07/21 05:05:15;;;;;;;4.20;3.90;;;;;;;16.91;77.91;99489.99;218707;1254;223841;-65
2023/07/21 05:10:24;;;;;;;5.10;4.70;;;;;;;17.54;76.59;99489.71;218854;1254;163482;-66
2023/07/21 05:15:29;;;;;;;9.40;4.60;;;;;;;18.68;75.27;99493.44;218670;1253;139938;-68
2023/07/21 05:20:39;;;;;;;4.10;3.90;;;;;;;19.12;73.69;99491.54;218392;1257;141051;-65
2023/07/21 05:25:45;;;;;;;4.50;4.10;;;;;;;20.49;71.67;99496.41;218893;1257;139896;-65
2023/07/21 05:30:50;;;;;;;3.70;3.50;;;;;;;24.42;66.97;99498.73;218260;1254;140220;-66
2023/07/21 05:36:07;;;;;;;3.30;3.10;;;;;;;27.74;61.31;99500.00;218684;1253;139679;-67
2023/07/21 05:41:12;;;;;;;2.60;2.40;;;;;;;30.43;56.96;99501.39;218936;1254;139690;-66
2023/07/21 05:46:17;;;;;;;2.30;2.20;;;;;;;32.50;52.01;99506.05;218771;1257;140487;-66
2023/07/21 05:51:23;;;;;;;2.70;1.70;;;;;;;33.94;47.63;99511.67;218720;1253;139424;-67
2023/07/21 05:56:27;;;;;;;6.40;1.90;;;;;;;35.24;44.79;99503.44;218165;1253;139981;-67
2023/07/21 06:01:36;;;;;;;1.70;1.10;;;;;;;35.70;41.31;99499.80;218996;1257;140388;-66
2023/07/21 06:06:40;;;;;;;2.60;1.70;;;;;;;36.64;39.75;99499.77;219218;1254;139696;-67
2023/07/21 06:11:46;;;;;;;2.50;2.30;;;;;;;37.81;37.83;99500.51;218521;1254;140031;-67
2023/07/21 06:16:53;;;;;;;1.10;1.10;;;;;;;39.02;36.17;99498.80;219562;1254;140339;-69
2023/07/21 06:22:00;;;;;;;4.20;1.50;;;;;;;39.69;34.22;99500.89;219499;1254;139022;-67
2023/07/21 06:27:05;;;;;;;1.20;1.20;;;;;;;39.48;32.91;99496.14;219685;1253;139949;-67
2023/07/21 06:32:10;;;;;;;1.20;1.20;;;;;;;38.51;31.92;99498.70;220094;1253;139201;-67
2023/07/21 06:37:15;;;;;;;1.20;1.10;;;;;;;37.33;32.22;99492.30;220873;1253;139292;-66
2023/07/21 06:42:20;;;;;;;1.70;1.60;;;;;;;37.02;32.18;99485.45;220135;1253;139300;-68
2023/07/21 06:47:25;;;;;;;5.40;1.40;;;;;;;36.11;31.71;99485.77;218326;1254;139316;-67
2023/07/21 06:52:30;;;;;;;2.20;1.20;;;;;;;34.55;32.95;99484.81;218834;1254;139262;-67
2023/07/21 06:57:37;;;;;;;2.20;1.10;;;;;;;34.07;33.09;99488.59;219825;1253;139375;-69
2023/07/21 07:02:49;;;;;;;0.90;0.90;;;;;;;33.87;32.92;99487.60;219302;1254;140990;-67
2023/07/21 07:07:54;;;;;;;0.80;0.80;;;;;;;33.72;32.76;99486.03;218498;1254;138944;-65
2023/07/21 07:12:59;;;;;;;0.50;0.50;;;;;;;34.45;32.61;99479.71;218087;1254;139073;-66
2023/07/21 07:18:04;;;;;;;0.50;0.50;;;;;;;35.11;31.57;99477.34;218541;1254;139688;-65
2023/07/21 07:23:09;;;;;;;0.50;0.50;;;;;;;35.22;30.43;99474.42;218270;1254;139052;-65
2023/07/21 07:28:17;;;;;;;1.00;1.00;;;;;;;35.17;30.71;99474.20;219147;1254;138860;-69
2023/07/21 07:33:21;;;;;;;1.00;0.60;;;;;;;34.90;30.37;99476.27;218183;1254;140502;-69
2023/07/21 07:38:28;;;;;;;0.50;0.50;;;;;;;34.34;30.45;99478.41;219317;1254;139248;-68
2023/07/21 07:43:32;;;;;;;1.00;0.80;;;;;;;32.81;30.43;99488.05;218112;1254;140394;-67
2023/07/21 07:48:36;;;;;;;;;;;;;;;31.45;31.28;99491.41;218761;1253;140230;-68
2023/07/21 07:53:39;;;;;;;0.80;0.80;;;;;;;31.16;32.15;99493.90;218727;1253;126048;-67
2023/07/21 07:58:44;;;;;;;3.30;1.00;;;;;;;30.58;31.82;99492.49;219422;1253;139110;-65
2023/07/21 08:03:49;;;;;;;0.80;0.80;;;;;;;29.68;32.45;99495.75;218449;1254;139979;-65
2023/07/21 08:08:54;;;;;;;1.70;1.60;;;;;;;29.31;33.41;99495.11;218677;1254;141661;-68
2023/07/21 08:13:58;;;;;;;1.80;0.90;;;;;;;29.06;33.32;99495.13;218154;1255;138987;-66
2023/07/21 08:19:03;;;;;;;;;;;;;;;29.23;33.69;99492.00;219403;1257;139621;-66
2023/07/21 08:24:08;;;;;;;;;;;;;;;28.91;33.27;99493.41;220462;1254;125221;-72
2023/07/21 08:29:12;;;;;;;0.90;0.90;;;;;;;28.09;33.79;99491.05;221253;1253;126112;-69
2023/07/21 08:34:16;;;;;;;1.10;1.00;;;;;;;28.30;34.64;99485.27;218047;1254;139545;-68
2023/07/21 08:39:21;;;;;;;3.00;1.10;;;;;;;28.61;34.36;99475.73;219400;1257;139488;-68
2023/07/21 08:44:28;;;;;;;1.10;1.00;;;;;;;28.97;34.21;99468.86;220936;1253;139244;-69
2023/07/21 08:49:33;;;;;;;1.50;1.30;;;;;;;29.34;33.91;99468.89;218920;1254;139960;-67
2023/07/21 08:54:38;;;;;;;2.80;1.10;;;;;;;29.44;33.45;99464.83;220364;1253;140132;-69
2023/07/21 08:59:42;;;;;;;1.30;1.10;;;;;;;29.07;33.21;99461.89;219250;1252;140588;-68
2023/07/21 09:04:47;;;;;;;1.10;1.10;;;;;;;28.95;32.82;99458.38;218085;1253;142625;-68
2023/07/21 09:09:52;;;;;;;1.10;0.90;;;;;;;29.03;33.16;99451.73;219464;1253;139873;-68
2023/07/21 09:15:09;;;;;;;0.90;0.90;;;;;;;29.09;33.35;99451.35;218471;1256;139124;-68
2023/07/21 09:20:17;;;;;;;0.80;0.80;;;;;;;29.21;32.93;99451.33;218280;1254;139168;-69
2023/07/21 09:25:25;;;;;;;0.90;0.80;;;;;;;28.96;32.63;99449.55;218277;1255;140026;-70
2023/07/21 09:30:30;;;;;;;;;;;;;;;29.01;32.72;99447.13;218272;1257;139220;-71
2023/07/21 09:35:37;;;;;;;0.80;0.80;;;;;;;29.28;32.57;99435.67;219209;1254;125524;-71
2023/07/21 09:40:44;;;;;;;1.90;1.30;;;;;;;29.67;32.01;99430.13;218218;1254;139281;-70
2023/07/21 09:45:49;;;;;;;0.60;0.60;;;;;;;29.49;31.38;99433.61;218233;1254;139167;-69
2023/07/21 09:50:59;;;;;;;2.40;1.00;;;;;;;29.26;30.94;99431.55;218329;1254;140933;-70
2023/07/21 09:56:05;;;;;;;0.80;0.80;;;;;;;29.57;31.09;99426.13;219213;1254;139555;-71
2023/07/21 10:01:11;;;;;;;0.40;0.40;;;;;;;29.82;30.69;99426.58;219118;1253;139068;-69
2023/07/21 10:06:16;;;;;;;1.00;1.00;;;;;;;29.77;30.92;99427.13;218742;1253;140050;-70
2023/07/21 10:11:22;;;;;;;0.80;0.80;;;;;;;29.28;30.63;99431.98;219177;1253;141039;-71
2023/07/21 10:16:30;;;;;;;1.70;1.00;;;;;;;28.60;30.98;99432.22;219084;1253;138959;-70
2023/07/21 10:21:53;;;;;;;1.10;0.90;;;;;;;28.00;31.12;99424.14;220891;1254;139304;-68
2023/07/21 10:27:02;;;;;;;1.10;1.00;;;;;;;27.69;31.47;99422.14;220899;1253;140264;-68
2023/07/21 10:32:10;;;;;;;2.40;1.00;;;;;;;27.49;31.37;99419.59;219754;1253;141276;-69
2023/07/21 10:37:15;;;;;;;1.10;0.90;;;;;;;27.35;31.55;99410.65;220884;1253;140423;-74
2023/07/21 10:42:19;;;;;;;;;;;;;;;27.18;31.54;99411.95;218558;1254;140244;-71
2023/07/21 10:47:25;;;;;;;6.00;1.10;;;;;;;27.31;31.96;99411.09;219075;1254;126131;-70
2023/07/21 10:52:31;;;;;;;1.00;1.00;;;;;;;27.89;31.62;99406.20;218864;1256;139412;-68
2023/07/21 10:57:40;;;;;;;1.10;1.10;;;;;;;28.39;31.70;99408.92;218501;1254;139816;-69
2023/07/21 11:02:45;;;;;;;1.90;1.10;;;;;;;28.42;30.86;99407.52;218906;1254;139482;-69
2023/07/21 11:07:52;;;;;;;1.60;1.00;;;;;;;28.41;30.78;99402.23;218786;1254;139696;-70
2023/07/21 11:12:59;;;;;;;2.50;1.20;;;;;;;28.23;30.85;99397.26;217972;1254;139258;-74
2023/07/21 11:18:09;;;;;;;1.30;1.20;;;;;;;28.57;30.73;99397.15;218464;1253;139116;-71
2023/07/21 11:23:14;;;;;;;1.50;0.90;;;;;;;28.21;30.18;99391.56;219087;1253;139165;-70
2023/07/21 11:28:18;;;;;;;1.10;1.00;;;;;;;27.97;30.39;99389.26;219904;1253;140402;-72
2023/07/21 11:33:23;;;;;;;3.40;1.30;;;;;;;27.88;30.49;99385.14;218318;1257;138899;-69
2023/07/21 11:38:28;;;;;;;1.00;0.90;;;;;;;28.33;30.61;99381.08;218572;1254;141998;-69
2023/07/21 11:43:32;;;;;;;6.10;1.30;;;;;;;28.14;30.12;99375.59;219520;1254;139467;-70
2023/07/21 11:48:37;;;;;;;;;;;;;;;28.25;30.03;99373.95;218639;1254;139282;-69
2023/07/21 11:53:49;;;;;;;0.70;0.70;;;;;;;28.48;29.28;99365.80;220109;1257;126400;-70
2023/07/21 11:58:58;;;;;;;0.80;0.60;;;;;;;28.69;29.59;99362.58;219439;1253;138993;-74
2023/07/21 12:04:05;;;;;;;1.20;0.90;;;;;;;28.87;29.43;99359.80;218847;1254;139524;-72
2023/07/21 12:09:19;;;;;;;24.20;7.90;;;;;;;28.88;30.04;99352.27;220269;1253;142599;-71
2023/07/21 12:14:25;;;;;;;60.80;18.50;;;;;;;28.97;30.84;99348.05;219909;1254;139917;-72
2023/07/21 12:19:29;;;;;;;11.40;5.40;;;;;;;28.80;30.33;99340.14;219912;1254;139206;-71
2023/07/21 12:24:35;;;;;;;0.70;0.70;;;;;;;28.38;30.55;99339.20;217616;1257;3456340;-70
2023/07/21 12:29:39;;;;;;;2.60;1.50;;;;;;;28.16;30.17;99335.93;219243;1255;140854;-71
2023/07/21 12:34:53;;;;;;;0.50;0.50;;;;;;;28.01;29.78;99325.54;220344;1254;139318;-71
2023/07/21 12:39:57;;;;;;;3.50;1.80;;;;;;;27.74;29.98;99318.10;220040;1253;139117;-72
2023/07/21 12:45:04;;;;;;;1.70;1.40;;;;;;;27.59;29.85;99316.88;219792;1254;139364;-70
2023/07/21 12:50:09;;;;;;;2.70;0.90;;;;;;;27.69;30.62;99313.92;219406;1254;139386;-69
2023/07/21 12:55:15;;;;;;;21.50;14.60;;;;;;;28.05;30.30;99309.88;218705;1253;140380;-69
2023/07/21 13:00:21;;;;;;;10.20;4.00;;;;;;;28.37;29.57;99307.70;219471;1254;139983;-71
2023/07/21 13:05:25;;;;;;;2.80;2.20;;;;;;;28.63;28.88;99309.82;218689;1254;141051;-69
2023/07/21 13:10:32;;;;;;;1.50;1.40;;;;;;;28.70;28.32;99305.16;218397;1254;139235;-69
2023/07/21 13:15:37;;;;;;;0.90;0.90;;;;;;;28.76;28.03;99302.83;219554;1254;138964;-71
2023/07/21 13:20:43;;;;;;;4.00;2.20;;;;;;;28.79;27.72;99309.39;218204;1254;138798;-71
2023/07/21 13:25:51;;;;;;;2.60;1.40;;;;;;;28.77;28.31;99310.91;218461;1255;140318;-70
2023/07/21 13:30:55;;;;;;;6.90;2.00;;;;;;;28.71;28.30;99305.80;218661;1253;139629;-69
2023/07/21 13:36:00;;;;;;;2.00;1.90;;;;;;;28.53;28.09;99313.46;219095;1254;141489;-70
2023/07/21 13:41:05;;;;;;;1.20;0.80;;;;;;;28.48;28.21;99308.29;219345;1254;139648;-70
2023/07/21 13:46:10;;;;;;;1.60;1.10;;;;;;;28.28;27.89;99316.39;219359;1254;139910;-72
2023/07/21 13:51:21;;;;;;;18.50;11.20;;;;;;;28.04;28.30;99306.04;218992;1254;140100;-72
2023/07/21 13:56:27;;;;;;;1.10;1.10;;;;;;;27.91;28.74;99306.94;218324;1257;207846;-72
2023/07/21 14:01:35;;;;;;;1.40;1.30;;;;;;;27.75;28.75;99296.92;218253;1258;139295;-70
2023/07/21 14:06:40;;;;;;;15.10;9.60;;;;;;;27.68;29.54;99292.00;218360;1254;139860;-68
2023/07/21 14:11:45;;;;;;;10.30;7.40;;;;;;;27.38;29.06;99290.05;218487;1254;140844;-72
2023/07/21 14:16:51;;;;;;;1.50;1.00;;;;;;;27.15;29.13;99287.05;219852;1253;140762;-67
2023/07/21 14:21:58;;;;;;;6.80;4.70;;;;;;;27.08;29.30;99285.48;219980;1253;141731;-76
2023/07/21 14:27:03;;;;;;;1.20;1.10;;;;;;;27.00;29.66;99290.27;221014;1254;139610;-69
2023/07/21 14:32:11;;;;;;;1.90;0.90;;;;;;;26.93;29.59;99293.08;220734;1253;140327;-66
2023/07/21 14:37:19;;;;;;;1.10;0.80;;;;;;;26.72;29.72;99285.05;220378;1254;140432;-71
2023/07/21 14:42:25;;;;;;;0.90;0.90;;;;;;;26.93;30.09;99277.04;218750;1256;139478;-67
2023/07/21 14:47:30;;;;;;;0.80;0.80;;;;;;;27.36;29.78;99276.80;219036;1256;140000;-67
2023/07/21 14:52:38;;;;;;;0.80;0.80;;;;;;;27.49;29.40;99282.55;218269;1254;140170;-71
2023/07/21 14:57:51;;;;;;;0.80;0.80;;;;;;;27.29;29.32;99269.83;219705;1255;140020;-67
2023/07/21 15:02:56;;;;;;;0.90;0.90;;;;;;;27.04;29.93;99270.83;218794;1254;139094;-68
2023/07/21 15:08:02;;;;;;;2.10;1.00;;;;;;;26.61;29.56;99260.80;219206;1255;139604;-68
2023/07/21 15:13:06;;;;;;;1.20;1.00;;;;;;;26.33;29.97;99250.06;218966;1254;139754;-67
2023/07/21 15:18:11;;;;;;;1.70;0.90;;;;;;;26.17;29.73;99245.98;218766;1253;141080;-68
2023/07/21 15:23:15;;;;;;;1.20;1.10;;;;;;;26.27;29.76;99244.29;218811;1257;139207;-68
2023/07/21 15:28:21;;;;;;;1.30;1.20;;;;;;;26.55;29.49;99235.18;218570;1254;139902;-67
2023/07/21 15:33:25;;;;;;;;;;;;;;;26.79;29.62;99233.02;218501;1258;139291;-67
2023/07/21 15:38:30;;;;;;;2.40;1.40;;;;;;;26.86;29.94;99228.75;219030;1253;124886;-67
2023/07/21 15:43:36;;;;;;;0.60;0.60;;;;;;;26.83;29.83;99233.42;218061;1258;138874;-68
2023/07/21 15:48:43;;;;;;;4.30;1.60;;;;;;;26.64;29.58;99231.98;218316;1257;140313;-69
2023/07/21 15:53:59;;;;;;;2.10;1.00;;;;;;;26.45;29.54;99223.94;218892;1254;138955;-67
2023/07/21 15:59:24;;;;;;;1.00;0.90;;;;;;;26.59;30.26;99223.39;218767;1254;139137;-67
2023/07/21 16:04:29;;;;;;;1.10;1.00;;;;;;;26.54;29.90;99217.91;219800;1254;139733;-69
2023/07/21 16:09:33;;;;;;;1.00;1.00;;;;;;;26.44;30.00;99216.25;219319;1256;139318;-70
2023/07/21 16:14:37;;;;;;;23.10;2.80;;;;;;;26.54;30.51;99211.11;220070;1254;139393;-66
2023/07/21 16:19:43;;;;;;;2.00;1.20;;;;;;;26.60;30.61;99205.14;219851;1254;139356;-67
2023/07/21 16:24:50;;;;;;;1.30;1.30;;;;;;;26.28;30.93;99206.14;218920;1254;140474;-69
2023/07/21 16:30:01;;;;;;;1.20;1.20;;;;;;;25.94;31.41;99203.15;221029;1254;139386;-71
2023/07/21 16:35:15;;;;;;;1.40;1.30;;;;;;;25.81;31.63;99197.95;218867;1258;139391;-74
2023/07/21 16:40:24;;;;;;;1.30;1.30;;;;;;;25.68;32.10;99193.06;219336;1254;139583;-68
2023/07/21 16:45:29;;;;;;;2.40;1.10;;;;;;;25.59;32.36;99188.83;219263;1254;141373;-68
2023/07/21 16:50:35;;;;;;;2.20;2.10;;;;;;;25.39;32.58;99190.89;219562;1254;140020;-69
2023/07/21 16:55:41;;;;;;;5.60;1.80;;;;;;;25.14;32.85;99189.92;218811;1254;139957;-68
2023/07/21 17:00:46;;;;;;;1.50;1.40;;;;;;;25.10;33.63;99191.60;219233;1257;139141;-72
2023/07/21 17:05:50;;;;;;;1.50;1.40;;;;;;;24.96;33.57;99192.73;217968;1254;139696;-65
2023/07/21 17:10:58;;;;;;;3.50;1.40;;;;;;;24.81;33.78;99188.66;218169;1257;140859;-65
2023/07/21 17:16:04;;;;;;;1.40;1.30;;;;;;;24.72;33.95;99181.16;218505;1254;139178;-65
2023/07/21 17:21:09;;;;;;;2.90;1.60;;;;;;;24.64;34.67;99182.91;218761;1258;139877;-64
2023/07/21 17:26:14;;;;;;;1.40;1.30;;;;;;;24.49;35.06;99183.35;218304;1254;139477;-66
2023/07/21 17:31:21;;;;;;;1.20;1.10;;;;;;;24.40;36.15;99181.75;218494;1254;140499;-67
2023/07/21 17:36:26;;;;;;;4.40;1.10;;;;;;;24.31;37.69;99175.92;218208;1254;139640;-69
2023/07/21 17:41:31;;;;;;;1.70;1.50;;;;;;;24.19;38.20;99171.48;219365;1258;139990;-73
2023/07/21 17:46:35;;;;;;;2.70;2.00;;;;;;;24.07;39.37;99170.15;218468;1258;139821;-68
2023/07/21 17:51:41;;;;;;;;;;;;;;;23.92;39.58;99161.98;219101;1254;139823;-65
2023/07/21 17:56:54;;;;;;;31.10;3.50;;;;;;;23.75;40.84;99156.31;218895;1258;125702;-64
2023/07/21 18:01:59;;;;;;;3.60;1.40;;;;;;;23.61;41.26;99149.12;219270;1254;140285;-71
2023/07/21 18:07:04;;;;;;;1.50;1.40;;;;;;;23.46;41.92;99146.23;218683;1255;138947;-69
2023/07/21 18:12:09;;;;;;;101.10;10.70;;;;;;;23.31;42.38;99151.73;218442;1257;139693;-70
2023/07/21 18:17:15;;;;;;;1.60;1.50;;;;;;;23.13;43.15;99156.05;220482;1254;142138;-71
2023/07/21 18:22:19;;;;;;;6.30;2.10;;;;;;;22.94;43.38;99158.67;221011;1253;139514;-70
2023/07/21 18:27:24;;;;;;;2.60;2.40;;;;;;;22.78;43.77;99156.79;219144;1258;140332;-70
2023/07/21 18:32:30;;;;;;;2.20;1.80;;;;;;;22.57;43.84;99146.18;220740;1254;139939;-65
2023/07/21 18:37:34;;;;;;;11.20;3.80;;;;;;;22.42;44.90;99144.23;218139;1254;140866;-71
2023/07/21 18:42:41;;;;;;;7.60;3.30;;;;;;;22.28;45.52;99147.25;220986;1258;139584;-66
2023/07/21 18:47:47;;;;;;;12.50;3.70;;;;;;;22.12;45.97;99146.90;218862;1257;139452;-66
2023/07/21 18:52:54;;;;;;;6.50;3.20;;;;;;;21.93;46.51;99146.02;219560;1255;139589;-71
2023/07/21 18:58:01;;;;;;;6.00;3.60;;;;;;;21.77;46.86;99151.34;220017;1254;151536;-70
2023/07/21 19:03:06;;;;;;;6.20;2.30;;;;;;;21.64;46.98;99150.23;218551;1259;140304;-71
2023/07/21 19:08:11;;;;;;;5.40;2.90;;;;;;;21.52;47.31;99146.25;219250;1257;140287;-71
2023/07/21 19:13:17;;;;;;;3.90;3.40;;;;;;;21.39;48.13;99151.05;218178;1256;140210;-69
2023/07/21 19:18:22;;;;;;;4.30;2.40;;;;;;;21.26;48.16;99150.92;218242;1254;141420;-67
2023/07/21 19:23:26;;;;;;;12.10;3.00;;;;;;;21.12;48.72;99152.14;218734;1254;140364;-69
2023/07/21 19:28:31;;;;;;;4.30;2.60;;;;;;;20.99;49.09;99148.16;218566;1257;140093;-67
2023/07/21 19:33:37;;;;;;;4.70;3.10;;;;;;;20.85;49.08;99146.24;218871;1255;140159;-69
2023/07/21 19:38:41;;;;;;;7.00;2.90;;;;;;;20.72;49.14;99151.08;218865;1255;139403;-65
2023/07/21 19:43:45;;;;;;;11.60;3.50;;;;;;;20.62;49.36;99154.29;217935;1254;139897;-65
2023/07/21 19:48:50;;;;;;;6.40;3.00;;;;;;;20.52;49.73;99159.27;219089;1255;139665;-66
2023/07/21 19:53:57;;;;;;;2.50;2.10;;;;;;;20.44;49.76;99159.45;219034;1254;140226;-68
2023/07/21 19:59:02;;;;;;;5.60;2.60;;;;;;;20.38;49.51;99166.60;217923;1254;139583;-67
2023/07/21 20:04:09;;;;;;;2.80;2.30;;;;;;;20.30;49.53;99164.95;218366;1257;139470;-68
2023/07/21 20:09:22;;;;;;;6.90;1.90;;;;;;;20.25;50.34;99156.11;218529;1254;139604;-68
2023/07/21 20:14:26;;;;;;;5.50;2.50;;;;;;;20.20;50.80;99151.09;219670;1257;139615;-69
2023/07/21 20:19:30;;;;;;;2.40;2.20;;;;;;;20.15;50.79;99156.98;218727;1254;140376;-67
2023/07/21 20:24:37;;;;;;;8.10;2.70;;;;;;;20.11;50.87;99165.75;220947;1255;139022;-68
2023/07/21 20:29:42;;;;;;;2.40;2.20;;;;;;;20.10;50.83;99165.30;220607;1254;139483;-67
2023/07/21 20:34:48;;;;;;;2.30;2.10;;;;;;;20.07;50.49;99156.02;220752;1254;139864;-66
2023/07/21 20:39:53;;;;;;;7.30;2.50;;;;;;;20.07;51.08;99153.95;220562;1255;140005;-66
2023/07/21 20:44:58;;;;;;;2.80;2.20;;;;;;;20.07;51.01;99157.67;218024;1257;141862;-69
2023/07/21 20:50:05;;;;;;;2.90;2.20;;;;;;;20.04;50.64;99187.48;218908;1257;141393;-65
2023/07/21 20:55:09;;;;;;;3.60;2.80;;;;;;;19.95;49.47;99190.82;218427;1257;139288;-65
2023/07/21 21:00:15;;;;;;;8.10;3.00;;;;;;;19.93;49.37;99184.21;217968;1256;151115;-64
2023/07/21 21:05:20;;;;;;;5.70;2.80;;;;;;;19.93;49.97;99180.44;218351;1256;140516;-69
2023/07/21 21:10:25;;;;;;;4.60;3.20;;;;;;;19.95;51.13;99178.50;219143;1254;140949;-66
2023/07/21 21:15:31;;;;;;;4.30;3.20;;;;;;;19.91;52.02;99177.56;217744;1257;139393;-65
2023/07/21 21:20:36;;;;;;;3.50;3.20;;;;;;;19.81;53.14;99183.17;218866;1257;139974;-68
2023/07/21 21:25:41;;;;;;;4.30;3.90;;;;;;;19.72;54.05;99186.05;218163;1259;139727;-65
2023/07/21 21:30:46;;;;;;;4.40;4.00;;;;;;;19.60;54.87;99188.08;217964;1257;142855;-65
2023/07/21 21:35:50;;;;;;;3.50;3.20;;;;;;;19.48;55.95;99187.31;218090;1257;139055;-65
2023/07/21 21:40:56;;;;;;;3.70;3.40;;;;;;;19.41;56.61;99186.98;218172;1258;139550;-68
2023/07/21 21:46:01;;;;;;;3.90;3.60;;;;;;;19.37;57.20;99190.48;218399;1257;139363;-69
2023/07/21 21:51:05;;;;;;;7.00;2.90;;;;;;;19.33;57.74;99204.69;217719;1256;139278;-65
2023/07/21 21:56:10;;;;;;;7.00;3.50;;;;;;;19.32;58.18;99207.77;218494;1257;139681;-68
2023/07/21 22:01:15;;;;;;;5.00;3.80;;;;;;;19.33;58.58;99211.66;218840;1259;140078;-68
2023/07/21 22:06:20;;;;;;;9.90;4.40;;;;;;;19.30;58.94;99207.55;218801;1256;140413;-65
2023/07/21 22:11:25;;;;;;;4.70;4.00;;;;;;;19.27;59.24;99211.35;219051;1259;139764;-66
2023/07/21 22:16:30;;;;;;;3.60;3.30;;;;;;;19.28;59.47;99202.45;220188;1256;141293;-63
2023/07/21 22:21:36;;;;;;;23.50;5.50;;;;;;;19.29;59.70;99202.61;218920;1257;140009;-67
2023/07/21 22:26:40;;;;;;;5.40;4.00;;;;;;;19.24;60.05;99213.36;220587;1256;141120;-65
2023/07/21 22:31:45;;;;;;;4.10;3.70;;;;;;;19.17;60.33;99199.20;220486;1256;140140;-68
2023/07/21 22:36:50;;;;;;;5.30;3.50;;;;;;;19.16;60.63;99192.58;220540;1256;141800;-66
2023/07/21 22:41:54;;;;;;;4.60;4.10;;;;;;;19.12;60.75;99192.95;220595;1254;139914;-74
2023/07/21 22:46:59;;;;;;;4.30;4.00;;;;;;;19.08;60.94;99206.38;219899;1256;140422;-66
2023/07/21 22:52:04;;;;;;;8.80;4.60;;;;;;;19.02;61.06;99212.48;220130;1256;140087;-68
2023/07/21 22:57:07;;;;;;;5.60;4.00;;;;;;;18.98;61.40;99225.50;218041;1257;141058;-67
2023/07/21 23:02:11;;;;;;;4.20;3.30;;;;;;;18.93;61.65;99232.90;219002;1256;139762;-67
2023/07/21 23:07:16;;;;;;;6.40;4.10;;;;;;;18.85;61.87;99227.12;218583;1255;140133;-66
2023/07/21 23:12:22;;;;;;;4.30;3.90;;;;;;;18.78;62.29;99229.77;219045;1256;140000;-67
2023/07/21 23:17:29;;;;;;;4.10;3.70;;;;;;;18.74;62.48;99224.04;218611;1257;140329;-65
2023/07/21 23:22:34;;;;;;;5.30;4.30;;;;;;;18.69;62.81;99218.89;218286;1257;140067;-66
2023/07/21 23:27:38;;;;;;;4.30;3.60;;;;;;;18.59;62.76;99211.00;218117;1257;139680;-71
2023/07/21 23:32:43;;;;;;;4.40;4.10;;;;;;;18.40;63.07;99215.06;218598;1259;140846;-69